Impacts METAR Board
IDs:

KDFW - Dallas-Ft Worth Intl, TX, US

Updated at: 1100 UTC 23 May 2018
Potential Impact None Slight Moderate High
Time 22/23Z 23/00Z 23/01Z 23/02Z 23/03Z 23/04Z 23/05Z 23/06Z 23/07Z 23/08Z 23/09Z 23/10Z 23/11Z
Temp87 86 84 81 80 77 75 74 74 74 72 72 71
Dewpt65 64 64 69 68 69 68 67 67 67 67 67 68
Altim29.91 29.91 29.92 29.94 29.95 29.97 29.98 29.98 29.98 29.97 29.96 29.97 29.99
VIS10 10 10 10 10 10 10 10 10 10 10 10 10
CIG-- 300 300 300 -- -- -- -- -- -- -- -- --
CoverSCTBKNBKNBKNSCTSCTSCTSCTSCTFEWFEWFEWFEW
FltCatVFRVFRVFRVFRVFRVFRVFRVFRVFRVFRVFRVFRVFR
WX--------------------------
WDir140190170140150140140150140160160110150
WSpd9 10 7 10 9 3 4 5 3 5 4 4 3
WGst-- -- -- -- -- -- -- -- -- -- -- -- --
Raw hourly METARs
KDFW 222253Z COR 14009KT 10SM FEW050TCU SCT300 31/18 A2991 RMK AO2 SLP120 TCU N NE AND DSNT E-SE T03060183
KDFW 222353Z 19010KT 10SM FEW050 BKN300 30/18 A2991 RMK AO2 SLP119 T03000178 10317 20283 56008
KDFW 230053Z 17007KT 10SM FEW050 BKN300 29/18 A2992 RMK AO2 SLP122 T02890178
KDFW 230153Z 14010KT 10SM FEW050 BKN300 27/21 A2994 RMK AO2 SLP128 T02720206
KDFW 230253Z 15009KT 10SM SCT300 27/20 A2995 RMK AO2 SLP134 T02670200 53014
KDFW 230353Z 14003KT 10SM SCT300 25/21 A2997 RMK AO2 SLP139 T02500206
KDFW 230453Z 14004KT 10SM SCT300 24/20 A2998 RMK AO2 SLP143 T02390200
KDFW 230553Z 15005KT 10SM SCT300 23/19 A2998 RMK AO2 SLP144 T02330194 10300 20233 403170200 51010
KDFW 230653Z 14003KT 10SM FEW100 SCT300 23/19 A2998 RMK AO2 SLP143 T02330194
KDFW 230753Z 16005KT 10SM FEW110 FEW300 23/19 A2997 RMK AO2 SLP141 T02330194
KDFW 230853Z 16004KT 10SM FEW110 FEW300 22/19 A2996 RMK AO2 SLP136 T02220194 58008
KDFW 230953Z 11004KT 10SM FEW300 22/19 A2997 RMK AO2 SLP141 T02220194
KDFW 231053Z 15003KT 10SM FEW300 22/20 A2999 RMK AO2 SLP147 T02170200



Page loaded:  11:11 UTC  |   04:11 AM Pacific  |   05:11 AM Mountain  |   06:11 AM Central  |   07:11 AM Eastern

 

ADVISORIES

FORECASTS

FORECASTS

OBSERVATIONS

USER TOOLS

ABOUT US